Terminal Aerodrome Forecast
Issued by NWS

Home | Current Version | Previous Version | Text Only | Print | Product List | Glossary On
Versions: 1 2 3 4 5 6 7 8 9 10 11 12 13 14 15
975
FTUS44 KLZK 242332
TAFLIT
TAF
KLIT 242332Z 2500/2524 19009KT P6SM VCSH SCT030 BKN050 BKN250
     FM250300 16007KT P6SM FEW030 SCT100 BKN250
     FM251000 18007KT 6SM BR OVC015
     FM251500 18009KT P6SM BKN035 BKN250
     FM251800 18008G15KT P6SM VCTS BKN030CB OVC250=

USA.gov is the U.S. government's official web portal to all federal, state and local government web resources and services.